createdAt,value
2022-10-15T00:01:53.899Z,12.25
2022-10-15T00:04:22.643Z,12.30
2022-10-15T00:06:52.771Z,12.32
2022-10-15T00:09:21.334Z,12.30
2022-10-15T00:11:51.868Z,12.28
2022-10-15T00:14:20.888Z,12.32
2022-10-15T00:16:51.101Z,12.28
2022-10-15T00:19:19.970Z,12.32
2022-10-15T00:21:50.486Z,12.31
2022-10-15T00:24:19.000Z,12.32
2022-10-15T00:26:47.805Z,12.30
2022-10-15T00:29:16.615Z,12.26
2022-10-15T00:31:45.724Z,12.31
2022-10-15T00:34:16.701Z,12.30
2022-10-15T00:36:45.426Z,12.30
2022-10-15T00:39:14.190Z,12.28
2022-10-15T00:41:45.790Z,12.30
2022-10-15T00:44:51.814Z,12.31
2022-10-15T00:47:25.705Z,12.30
2022-10-15T00:50:03.012Z,12.34
2022-10-15T00:52:44.875Z,12.34
2022-10-15T00:55:18.001Z,12.34
2022-10-15T00:57:48.831Z,12.32
2022-10-15T01:00:18.851Z,12.35
2022-10-15T01:02:48.291Z,12.35
2022-10-15T01:05:20.131Z,12.40
2022-10-15T01:07:48.622Z,12.38
2022-10-15T01:10:18.041Z,12.37
2022-10-15T01:13:07.167Z,12.35
2022-10-15T01:15:43.144Z,12.35
2022-10-15T01:18:16.227Z,12.32
2022-10-15T01:20:59.959Z,12.36
2022-10-15T01:24:11.258Z,12.39
2022-10-15T01:27:26.112Z,12.40
2022-10-15T01:30:21.047Z,12.38
2022-10-15T01:32:54.150Z,12.41
2022-10-15T01:35:34.567Z,12.37
2022-10-15T01:38:12.388Z,12.36
2022-10-15T01:40:49.593Z,12.39
2022-10-15T01:43:27.498Z,12.38
2022-10-15T01:46:03.973Z,12.36
2022-10-15T01:48:36.432Z,12.42
2022-10-15T01:51:09.633Z,12.42
2022-10-15T01:53:39.965Z,12.41
2022-10-15T01:56:14.094Z,12.42
2022-10-15T01:58:44.610Z,12.43
2022-10-15T02:01:15.806Z,12.43
2022-10-15T02:03:49.189Z,12.38
2022-10-15T02:06:24.819Z,12.41
2022-10-15T02:09:06.486Z,12.44
2022-10-15T02:11:48.458Z,12.42
2022-10-15T02:14:22.875Z,12.43
2022-10-15T02:17:02.457Z,12.38
2022-10-15T02:19:41.229Z,12.46
2022-10-15T02:22:17.123Z,12.44
2022-10-15T02:24:55.349Z,12.46
2022-10-15T02:27:26.356Z,12.49
2022-10-15T02:29:58.442Z,12.48
2022-10-15T02:32:32.532Z,12.48
2022-10-15T02:35:01.446Z,12.45
2022-10-15T02:37:33.948Z,12.46
2022-10-15T02:40:05.896Z,12.46
2022-10-15T02:42:37.239Z,12.47
2022-10-15T02:45:08.692Z,12.45
2022-10-15T02:47:39.336Z,12.43
2022-10-15T02:50:09.244Z,12.41
2022-10-15T02:52:38.351Z,12.44
2022-10-15T02:55:08.580Z,12.44
2022-10-15T02:57:37.776Z,12.43
2022-10-15T03:00:08.003Z,12.43
2022-10-15T03:02:38.910Z,12.44
2022-10-15T03:05:09.167Z,12.45
2022-10-15T03:07:38.344Z,12.44
2022-10-15T03:10:08.094Z,12.44
2022-10-15T03:12:38.087Z,12.38
2022-10-15T03:15:08.326Z,12.44
2022-10-15T03:17:38.562Z,12.42
2022-10-15T03:20:07.857Z,12.43
2022-10-15T03:22:36.768Z,12.45
2022-10-15T03:25:06.557Z,12.44
2022-10-15T03:27:34.929Z,12.46
2022-10-15T03:30:04.050Z,12.47
2022-10-15T03:32:34.323Z,12.48
2022-10-15T03:35:08.151Z,12.46
2022-10-15T03:37:37.583Z,12.45
2022-10-15T03:40:11.870Z,12.46
2022-10-15T03:42:43.794Z,12.47
2022-10-15T03:45:13.579Z,12.45
2022-10-15T03:47:43.165Z,12.41
2022-10-15T03:50:14.327Z,12.42
2022-10-15T03:52:43.848Z,12.41
2022-10-15T03:55:13.022Z,12.41
2022-10-15T03:57:42.447Z,12.44
2022-10-15T04:00:14.530Z,12.44
2022-10-15T04:02:43.508Z,12.46
2022-10-15T04:05:13.540Z,12.50
2022-10-15T04:07:43.275Z,12.50
2022-10-15T04:10:12.865Z,12.50
2022-10-15T04:12:41.642Z,12.52
2022-10-15T04:15:10.960Z,12.55
2022-10-15T04:17:39.998Z,12.52
2022-10-15T04:20:09.929Z,12.50
2022-10-15T04:22:41.106Z,12.51
2022-10-15T04:25:10.610Z,12.52
2022-10-15T04:27:40.430Z,12.52
2022-10-15T04:30:10.241Z,12.53
2022-10-15T04:32:38.753Z,12.54
2022-10-15T04:35:07.962Z,12.55
2022-10-15T04:37:37.295Z,12.55
2022-10-15T04:40:09.315Z,12.52
2022-10-15T04:42:38.866Z,12.53
2022-10-15T04:45:09.858Z,12.53
2022-10-15T04:47:38.790Z,12.53
2022-10-15T04:50:08.420Z,12.51
2022-10-15T04:52:37.175Z,12.55
2022-10-15T04:55:08.316Z,12.56
2022-10-15T04:57:37.559Z,12.57
2022-10-15T05:00:07.961Z,12.56
2022-10-15T05:02:37.562Z,12.55
2022-10-15T05:05:07.569Z,12.47
2022-10-15T05:07:36.041Z,12.52
2022-10-15T05:10:04.701Z,12.55
2022-10-15T05:12:34.575Z,12.56
2022-10-15T05:15:04.052Z,12.53
2022-10-15T05:17:32.760Z,12.55
2022-10-15T05:20:01.255Z,12.56
2022-10-15T05:22:30.233Z,12.58
2022-10-15T05:24:58.952Z,12.58
2022-10-15T05:27:27.604Z,12.58
2022-10-15T05:29:59.065Z,12.57
2022-10-15T05:32:27.595Z,12.54
2022-10-15T05:34:55.954Z,12.61
2022-10-15T05:37:25.465Z,12.60
2022-10-15T05:39:53.950Z,12.64
2022-10-15T05:42:23.259Z,12.61
2022-10-15T05:44:52.355Z,12.65
2022-10-15T05:47:22.740Z,12.66
2022-10-15T05:49:51.778Z,12.65
2022-10-15T05:52:20.558Z,12.60
2022-10-15T05:54:49.149Z,12.68
2022-10-15T05:57:18.060Z,12.68
2022-10-15T05:59:46.560Z,12.66
2022-10-15T06:02:16.434Z,12.74
2022-10-15T06:04:46.717Z,12.74
2022-10-15T06:07:16.926Z,12.79
2022-10-15T06:09:45.492Z,12.80
2022-10-15T06:12:14.207Z,12.85
2022-10-15T06:14:43.357Z,12.85
2022-10-15T06:17:12.196Z,12.78
2022-10-15T06:19:40.683Z,12.86
2022-10-15T06:22:12.112Z,12.80
2022-10-15T06:24:41.566Z,12.87
2022-10-15T06:27:10.403Z,12.88
2022-10-15T06:29:39.412Z,12.94
2022-10-15T06:32:12.240Z,12.91
2022-10-15T06:34:41.042Z,13.00
2022-10-15T06:37:10.894Z,13.06
2022-10-15T06:39:40.039Z,13.10
2022-10-15T06:42:08.681Z,13.14
2022-10-15T06:44:38.089Z,13.16
2022-10-15T06:47:07.934Z,13.24
2022-10-15T06:49:36.950Z,13.25
2022-10-15T06:52:05.652Z,13.28
2022-10-15T06:54:35.920Z,13.29
2022-10-15T06:57:04.361Z,13.32
2022-10-15T06:59:33.978Z,13.36
2022-10-15T07:02:03.338Z,13.37
2022-10-15T07:04:32.234Z,13.31
2022-10-15T07:07:00.841Z,13.39
2022-10-15T07:09:29.439Z,13.46
2022-10-15T07:12:00.267Z,13.50
2022-10-15T07:14:28.512Z,13.56
2022-10-15T07:16:56.865Z,13.60
2022-10-15T07:19:24.935Z,13.60
2022-10-15T07:21:53.687Z,13.62
2022-10-15T07:24:21.914Z,13.70
2022-10-15T07:26:50.331Z,13.72
2022-10-15T07:29:23.339Z,13.69
2022-10-15T07:31:51.966Z,13.77
2022-10-15T07:34:20.732Z,13.81
2022-10-15T07:36:50.059Z,13.83
2022-10-15T07:39:19.957Z,13.86
2022-10-15T07:41:48.442Z,13.97
2022-10-15T07:44:17.558Z,13.95
2022-10-15T07:46:49.265Z,14.06
2022-10-15T07:49:18.163Z,14.15
2022-10-15T07:51:46.550Z,14.25
2022-10-15T07:54:15.094Z,14.28
2022-10-15T07:56:43.321Z,14.33
2022-10-15T07:59:12.125Z,14.32
2022-10-15T08:01:41.303Z,14.33
2022-10-15T08:04:11.539Z,14.32
2022-10-15T08:06:40.342Z,14.34
2022-10-15T08:09:08.975Z,14.33
2022-10-15T08:11:37.803Z,14.35
2022-10-15T08:14:06.557Z,14.29
2022-10-15T08:16:35.127Z,14.33
2022-10-15T08:19:04.288Z,14.31
2022-10-15T08:21:34.432Z,14.32
2022-10-15T08:24:03.042Z,14.37
2022-10-15T08:26:31.721Z,14.47
2022-10-15T08:29:00.194Z,14.49
2022-10-15T08:31:29.342Z,14.54
2022-10-15T08:33:58.078Z,14.54
2022-10-15T08:36:26.905Z,14.59
2022-10-15T08:38:56.925Z,14.55
2022-10-15T08:41:31.549Z,14.55
2022-10-15T08:44:02.472Z,14.49
2022-10-15T08:46:37.516Z,14.49
2022-10-15T08:49:08.553Z,14.42
2022-10-15T08:51:46.905Z,14.44
2022-10-15T08:54:20.473Z,14.47
2022-10-15T08:56:55.475Z,14.46
2022-10-15T08:59:33.308Z,14.43
2022-10-15T09:02:09.749Z,14.48
2022-10-15T09:04:48.485Z,14.44
2022-10-15T09:07:23.333Z,14.50
2022-10-15T09:09:59.687Z,14.54
2022-10-15T09:12:44.515Z,14.59
2022-10-15T09:15:17.308Z,14.71
2022-10-15T09:18:03.576Z,14.77
2022-10-15T09:20:34.351Z,14.79
2022-10-15T09:23:03.390Z,14.69
2022-10-15T09:25:38.079Z,14.71
2022-10-15T09:28:13.218Z,14.74
2022-10-15T09:30:46.312Z,14.86
2022-10-15T09:33:20.294Z,14.98
2022-10-15T09:35:55.083Z,15.03
2022-10-15T09:38:38.140Z,15.12
2022-10-15T09:41:21.207Z,15.22
2022-10-15T09:43:53.020Z,15.22
2022-10-15T09:46:21.978Z,15.23
2022-10-15T09:48:57.602Z,15.25
2022-10-15T09:51:31.146Z,15.28
2022-10-15T09:54:05.948Z,15.41
2022-10-15T09:56:40.377Z,15.33
2022-10-15T09:59:09.841Z,15.35
2022-10-15T10:01:38.389Z,15.40
2022-10-15T10:04:15.496Z,15.46
2022-10-15T10:06:51.559Z,15.49
2022-10-15T10:09:23.295Z,15.39
2022-10-15T10:11:56.870Z,15.34
2022-10-15T10:14:29.396Z,15.33
2022-10-15T10:17:19.217Z,15.28
2022-10-15T10:20:06.318Z,15.27
2022-10-15T10:22:46.597Z,15.25
2022-10-15T10:25:33.108Z,15.30
2022-10-15T10:28:18.294Z,15.36
2022-10-15T10:30:54.949Z,15.28
2022-10-15T10:33:30.209Z,15.26
2022-10-15T10:35:59.352Z,15.32
2022-10-15T10:38:31.813Z,15.30
2022-10-15T10:41:07.901Z,15.23
2022-10-15T10:43:40.559Z,15.25
2022-10-15T10:46:20.604Z,15.20
2022-10-15T10:48:51.002Z,15.31
2022-10-15T10:51:24.650Z,15.41
2022-10-15T10:53:57.262Z,15.51
2022-10-15T10:56:29.748Z,15.64
2022-10-15T10:59:05.903Z,15.82
2022-10-15T11:01:34.854Z,15.88
2022-10-15T11:04:04.310Z,15.97
2022-10-15T11:06:53.056Z,15.96
2022-10-15T11:09:51.114Z,15.88
2022-10-15T11:12:39.902Z,15.95
2022-10-15T11:15:22.477Z,15.81
2022-10-15T11:18:03.953Z,15.95
2022-10-15T11:20:57.688Z,16.05
2022-10-15T11:23:42.979Z,16.02
2022-10-15T11:26:37.031Z,15.93
2022-10-15T11:29:13.778Z,15.82
2022-10-15T11:32:02.073Z,15.87
2022-10-15T11:34:46.469Z,15.85
2022-10-15T11:37:29.316Z,15.71
2022-10-15T11:40:13.834Z,15.72
2022-10-15T11:42:52.151Z,15.72
2022-10-15T11:45:39.357Z,15.60
2022-10-15T11:48:16.334Z,15.56
2022-10-15T11:50:51.414Z,15.64
2022-10-15T11:53:40.577Z,15.70
2022-10-15T11:56:15.306Z,15.74
2022-10-15T11:58:49.926Z,15.83
2022-10-15T12:01:25.493Z,15.81
2022-10-15T12:03:58.821Z,15.83
2022-10-15T12:06:32.948Z,15.72
2022-10-15T12:09:03.044Z,15.73
2022-10-15T12:11:46.380Z,15.70
2022-10-15T12:14:25.340Z,15.85
2022-10-15T12:17:03.643Z,15.94
2022-10-15T12:19:40.836Z,16.00
2022-10-15T12:22:12.415Z,15.96
2022-10-15T12:24:55.770Z,15.90
2022-10-15T12:27:27.397Z,15.87
2022-10-15T12:30:28.249Z,15.88
2022-10-15T12:32:57.601Z,15.81
2022-10-15T12:35:35.450Z,15.78
2022-10-15T12:38:22.422Z,15.85
2022-10-15T12:40:59.721Z,15.77
2022-10-15T12:43:29.412Z,15.70
2022-10-15T12:46:01.308Z,15.67
2022-10-15T12:48:35.972Z,15.61
2022-10-15T12:51:43.303Z,15.83
2022-10-15T12:54:40.748Z,15.93
2022-10-15T12:57:47.009Z,15.96
2022-10-15T13:00:40.827Z,15.91
2022-10-15T13:03:34.625Z,15.84
2022-10-15T13:06:33.604Z,15.88
2022-10-15T13:09:29.285Z,15.84
2022-10-15T13:12:01.396Z,15.80
2022-10-15T13:14:36.518Z,15.78
2022-10-15T13:17:07.681Z,15.76
2022-10-15T13:19:39.620Z,15.81
2022-10-15T13:22:21.506Z,15.82
2022-10-15T13:24:50.640Z,15.83
2022-10-15T13:27:26.221Z,15.89
2022-10-15T13:29:58.937Z,15.88
2022-10-15T13:32:29.596Z,15.99
2022-10-15T13:34:58.976Z,16.04
2022-10-15T13:37:33.020Z,16.01
2022-10-15T13:40:04.768Z,15.94
2022-10-15T13:42:37.620Z,15.89
2022-10-15T13:45:17.275Z,15.82
2022-10-15T13:47:50.521Z,15.80
2022-10-15T13:50:22.726Z,15.86
2022-10-15T13:52:55.631Z,15.90
2022-10-15T13:55:28.666Z,15.97
2022-10-15T13:58:03.984Z,16.07
2022-10-15T14:00:35.751Z,16.07
2022-10-15T14:03:16.847Z,16.09
2022-10-15T14:05:46.433Z,16.14
2022-10-15T14:08:20.764Z,16.27
2022-10-15T14:10:50.565Z,16.43
2022-10-15T14:13:21.092Z,16.69
2022-10-15T14:18:37.710Z,16.59
2022-10-15T14:21:13.441Z,16.43
2022-10-15T14:23:43.736Z,16.27
2022-10-15T14:26:14.012Z,16.24
2022-10-15T14:28:52.082Z,16.26
2022-10-15T14:31:33.099Z,16.24
2022-10-15T14:34:01.623Z,16.31
2022-10-15T14:36:32.703Z,16.24
2022-10-15T14:39:29.137Z,16.45
2022-10-15T14:42:00.571Z,16.41
2022-10-15T14:44:42.260Z,16.37
2022-10-15T14:47:21.111Z,16.34
2022-10-15T14:49:50.931Z,16.41
2022-10-15T14:52:22.176Z,16.37
2022-10-15T14:55:02.918Z,16.65
2022-10-15T14:57:36.417Z,16.56
2022-10-15T15:00:07.733Z,16.59
2022-10-15T15:02:36.348Z,16.55
2022-10-15T15:05:25.895Z,16.52
2022-10-15T15:07:55.974Z,16.53
2022-10-15T15:10:25.986Z,16.36
2022-10-15T15:12:57.848Z,16.26
2022-10-15T15:15:27.787Z,16.16
2022-10-15T15:17:57.075Z,16.04
2022-10-15T15:20:26.163Z,15.99
2022-10-15T15:22:55.990Z,15.93
2022-10-15T15:25:30.220Z,15.91
2022-10-15T15:27:59.221Z,15.84
2022-10-15T15:30:31.938Z,15.80
2022-10-15T15:33:01.646Z,15.76
2022-10-15T15:35:36.473Z,15.73
2022-10-15T15:38:07.859Z,15.69
2022-10-15T15:40:37.081Z,15.69
2022-10-15T15:43:06.483Z,15.63
2022-10-15T15:45:37.013Z,15.64
2022-10-15T15:48:06.263Z,15.65
2022-10-15T15:50:35.570Z,15.66
2022-10-15T15:53:04.604Z,15.63
2022-10-15T15:55:33.157Z,15.61
2022-10-15T15:58:01.434Z,15.58
2022-10-15T16:00:30.181Z,15.72
2022-10-15T16:03:00.221Z,15.63
2022-10-15T16:05:28.531Z,15.58
2022-10-15T16:07:57.398Z,15.59
2022-10-15T16:10:26.579Z,15.56
2022-10-15T16:12:56.460Z,15.48
2022-10-15T16:15:25.405Z,15.49
2022-10-15T16:17:54.569Z,15.44
2022-10-15T16:20:24.670Z,15.48
2022-10-15T16:22:54.140Z,15.44
2022-10-15T16:25:25.246Z,15.44
2022-10-15T16:27:57.648Z,15.41
2022-10-15T16:30:26.495Z,15.60
2022-10-15T16:32:55.027Z,15.46
2022-10-15T16:35:25.607Z,15.36
2022-10-15T16:37:56.313Z,15.45
2022-10-15T16:40:24.720Z,15.37
2022-10-15T16:42:53.168Z,15.42
2022-10-15T16:45:21.856Z,15.44
2022-10-15T16:47:53.218Z,15.50
2022-10-15T16:50:22.281Z,15.47
2022-10-15T16:52:52.340Z,15.46
2022-10-15T16:55:21.955Z,15.43
2022-10-15T16:57:51.157Z,15.49
2022-10-15T17:00:19.836Z,15.39
2022-10-15T17:02:47.966Z,15.42
2022-10-15T17:05:17.523Z,15.32
2022-10-15T17:07:45.857Z,15.25
2022-10-15T17:10:16.107Z,15.29
2022-10-15T17:12:44.493Z,15.26
2022-10-15T17:15:13.200Z,15.20
2022-10-15T17:17:42.215Z,15.19
2022-10-15T17:20:12.499Z,15.27
2022-10-15T17:22:42.304Z,15.27
2022-10-15T17:25:11.070Z,15.19
2022-10-15T17:27:41.055Z,15.20
2022-10-15T17:30:11.056Z,15.14
2022-10-15T17:32:39.694Z,15.10
2022-10-15T17:35:08.688Z,15.04
2022-10-15T17:37:37.833Z,14.98
2022-10-15T17:40:07.187Z,14.96
2022-10-15T17:42:36.741Z,14.93
2022-10-15T17:45:07.747Z,14.80
2022-10-15T17:47:38.935Z,14.89
2022-10-15T17:50:08.506Z,14.88
2022-10-15T17:52:36.705Z,14.85
2022-10-15T17:55:05.362Z,14.83
2022-10-15T17:57:33.894Z,14.82
2022-10-15T18:00:02.861Z,14.82
2022-10-15T18:02:33.223Z,14.79
2022-10-15T18:05:02.405Z,14.88
2022-10-15T18:07:31.160Z,14.87
2022-10-15T18:10:01.895Z,14.87
2022-10-15T18:12:30.944Z,14.86
2022-10-15T18:14:59.447Z,14.85
2022-10-15T18:17:28.382Z,14.82
2022-10-15T18:19:58.440Z,14.75
2022-10-15T18:22:27.556Z,14.74
2022-10-15T18:24:57.377Z,14.70
2022-10-15T18:27:27.190Z,14.65
2022-10-15T18:29:56.087Z,14.61
2022-10-15T18:32:25.297Z,14.54
2022-10-15T18:34:54.363Z,14.52
2022-10-15T18:37:24.538Z,14.55
2022-10-15T18:39:53.839Z,14.44
2022-10-15T18:42:22.510Z,14.49
2022-10-15T18:44:51.185Z,14.47
2022-10-15T18:47:19.398Z,14.47
2022-10-15T18:49:47.868Z,14.46
2022-10-15T18:52:34.945Z,14.45
2022-10-15T18:55:08.457Z,14.44
2022-10-15T18:57:36.704Z,14.43
2022-10-15T19:00:06.215Z,14.41
2022-10-15T19:02:34.324Z,14.41
2022-10-15T19:05:03.495Z,14.39
2022-10-15T19:07:32.304Z,14.31
2022-10-15T19:10:00.672Z,14.31
2022-10-15T19:12:30.627Z,14.31
2022-10-15T19:14:59.010Z,14.27
2022-10-15T19:17:28.314Z,14.22
2022-10-15T19:19:56.964Z,14.13
2022-10-15T19:22:25.603Z,14.02
2022-10-15T19:24:54.088Z,13.99
2022-10-15T19:27:22.448Z,13.88
2022-10-15T19:29:52.276Z,13.82
2022-10-15T19:32:20.927Z,13.74
2022-10-15T19:34:49.433Z,13.73
2022-10-15T19:37:21.021Z,13.64
2022-10-15T19:39:49.490Z,13.55
2022-10-15T19:42:18.085Z,13.55
2022-10-15T19:44:46.677Z,13.49
2022-10-15T19:47:19.973Z,13.43
2022-10-15T19:49:50.364Z,13.39
2022-10-15T19:52:18.782Z,13.31
2022-10-15T19:54:47.549Z,13.33
2022-10-15T19:57:16.339Z,13.28
2022-10-15T19:59:44.722Z,13.26
2022-10-15T20:02:13.411Z,13.24
2022-10-15T20:04:43.063Z,13.19
2022-10-15T20:07:12.322Z,13.26
2022-10-15T20:09:40.919Z,13.24
2022-10-15T20:12:10.730Z,13.22
2022-10-15T20:14:39.330Z,13.18
2022-10-15T20:17:07.973Z,13.11
2022-10-15T20:19:36.298Z,13.12
2022-10-15T20:22:06.455Z,13.05
2022-10-15T20:24:34.826Z,13.15
2022-10-15T20:27:03.214Z,13.19
2022-10-15T20:29:32.087Z,13.23
2022-10-15T20:32:11.148Z,13.35
2022-10-15T20:34:45.531Z,13.46
2022-10-15T20:37:17.682Z,13.54
2022-10-15T20:39:46.084Z,13.55
2022-10-15T20:42:15.499Z,13.58
2022-10-15T20:44:51.131Z,13.70
2022-10-15T20:47:19.873Z,13.74
2022-10-15T20:49:52.365Z,13.75
2022-10-15T20:52:23.920Z,13.71
2022-10-15T20:54:53.509Z,13.65
2022-10-15T20:57:22.423Z,13.62
2022-10-15T20:59:50.786Z,13.68
2022-10-15T21:02:19.222Z,13.68
2022-10-15T21:04:48.647Z,13.70
2022-10-15T21:07:18.284Z,13.70
2022-10-15T21:09:48.113Z,13.70
2022-10-15T21:12:18.964Z,13.64
2022-10-15T21:14:48.051Z,13.68
2022-10-15T21:17:16.449Z,13.62
2022-10-15T21:19:51.826Z,13.55
2022-10-15T21:22:22.156Z,13.53
2022-10-15T21:24:53.237Z,13.52
2022-10-15T21:27:22.072Z,13.51
2022-10-15T21:29:51.007Z,13.49
2022-10-15T21:32:20.287Z,13.53
2022-10-15T21:34:49.431Z,13.54
2022-10-15T21:37:18.028Z,13.55
2022-10-15T21:39:46.615Z,13.50
2022-10-15T21:42:18.124Z,13.55
2022-10-15T21:44:46.963Z,13.59
2022-10-15T21:47:16.266Z,13.60
2022-10-15T21:49:46.270Z,13.59
2022-10-15T21:52:15.058Z,13.62
2022-10-15T21:54:43.566Z,13.62
2022-10-15T21:57:12.088Z,13.67
2022-10-15T21:59:42.587Z,13.69
2022-10-15T22:02:11.489Z,13.71
2022-10-15T22:04:40.489Z,13.73
2022-10-15T22:07:09.546Z,13.73
2022-10-15T22:09:38.376Z,13.76
2022-10-15T22:12:08.495Z,13.79
2022-10-15T22:14:38.818Z,13.81
2022-10-15T22:17:08.849Z,13.84
2022-10-15T22:19:38.473Z,13.82
2022-10-15T22:22:08.128Z,13.88
2022-10-15T22:24:36.871Z,13.89
2022-10-15T22:27:06.411Z,13.92
2022-10-15T22:29:35.515Z,13.89
2022-10-15T22:32:05.290Z,13.83
2022-10-15T22:34:36.648Z,13.86
2022-10-15T22:37:06.733Z,13.87
2022-10-15T22:39:35.419Z,13.89
2022-10-15T22:42:06.431Z,13.92
2022-10-15T22:44:35.270Z,13.92
2022-10-15T22:47:03.464Z,13.87
2022-10-15T22:49:32.189Z,13.93
2022-10-15T22:52:02.443Z,13.89
2022-10-15T22:54:31.843Z,13.93
2022-10-15T22:57:00.430Z,13.99
2022-10-15T22:59:31.943Z,13.96
2022-10-15T23:02:01.284Z,13.96
2022-10-15T23:04:30.536Z,13.92
2022-10-15T23:06:59.801Z,13.99
2022-10-15T23:09:31.089Z,13.98
2022-10-15T23:11:59.817Z,14.05
2022-10-15T23:14:28.748Z,14.07
2022-10-15T23:16:57.507Z,14.06
2022-10-15T23:19:25.947Z,14.07
2022-10-15T23:21:57.142Z,14.04
2022-10-15T23:24:28.006Z,14.08
2022-10-15T23:26:58.351Z,14.12
2022-10-15T23:29:27.675Z,14.10
2022-10-15T23:31:56.738Z,14.03
2022-10-15T23:34:28.197Z,14.07
2022-10-15T23:36:57.021Z,14.02
2022-10-15T23:39:27.814Z,14.02
2022-10-15T23:41:58.677Z,13.97
2022-10-15T23:44:28.721Z,13.93
2022-10-15T23:46:58.366Z,13.96
2022-10-15T23:49:26.998Z,13.95
2022-10-15T23:51:55.955Z,13.93
2022-10-15T23:54:24.583Z,13.91
2022-10-15T23:56:53.245Z,13.92
2022-10-15T23:59:23.217Z,13.91
